Terminal Aerodrome Forecast
Issued by NWS Mt. Holly, NJ

Home | Current Version | Previous Version | Text Only | Print | Product List | Glossary On
Versions: 1 2 3 4 5 6 7 8 9 10 11 12 13 14 15 16 17 18 19 20 21 22 23 24
577
FTUS41 KPHI 060924 AAA
TAFACY
TAF AMD
KACY 060924Z 0609/0706 04011G18KT P6SM -RA SCT008 BKN013 OVC040
      TEMPO 0610/0614 4SM RA BR BKN008
     FM061400 04012G18KT 4SM -RA BR OVC007
     FM062000 10008KT 3SM -DZ BR OVC005
     FM070000 12007KT 1SM BR OVC004=

USA.gov is the U.S. government's official web portal to all federal, state and local government web resources and services.